Time;durP1;ratioP1;P1;durP2;ratioP2;P2;SDS_P1;SDS_P2;PMS_P1;PMS_P2;Temp;Humidity;BMP_temperature;BMP_pressure;BME280_temperature;BME280_humidity;BME280_pressure;Samples;Min_cycle;Max_cycle;Signal;HPM_P1;HPM_P2
2023/10/03 00:02:08;;;;;;;0.38;0.38;;;;;;;11.59;96.71;95543.38;5132768;27;20208;-75
2023/10/03 00:04:36;;;;;;;2.28;1.75;;;;;;;11.58;97.27;95549.91;5121379;27;20347;-75
2023/10/03 00:07:03;;;;;;;0.57;0.50;;;;;;;11.56;96.60;95552.13;5133071;27;20208;-76
2023/10/03 00:09:32;;;;;;;0.20;0.20;;;;;;;11.60;96.33;95559.34;5132600;27;20220;-75
2023/10/03 00:11:59;;;;;;;0.47;0.47;;;;;;;11.57;96.50;95551.00;5132259;27;20209;-76
2023/10/03 00:14:26;;;;;;;0.63;0.63;;;;;;;11.45;97.00;95559.72;5132856;27;20207;-74
2023/10/03 00:16:54;;;;;;;0.60;0.60;;;;;;;11.40;98.13;95555.22;5132753;27;20541;-74
2023/10/03 00:19:23;;;;;;;1.05;0.95;;;;;;;11.47;97.08;95554.00;5132127;27;20383;-74
2023/10/03 00:21:51;;;;;;;0.30;0.30;;;;;;;11.56;96.28;95554.84;5132939;27;20544;-74
2023/10/03 00:24:18;;;;;;;1.35;0.52;;;;;;;11.52;96.15;95551.13;5132451;27;20594;-73
2023/10/03 00:26:45;;;;;;;0.30;0.30;;;;;;;11.55;95.87;95556.75;5131941;27;20633;-75
2023/10/03 00:29:14;;;;;;;0.50;0.50;;;;;;;11.59;95.33;95562.38;5119646;27;20614;-74
2023/10/03 00:31:41;;;;;;;0.50;0.50;;;;;;;11.49;96.21;95551.75;5131338;27;20213;-75
2023/10/03 00:34:08;;;;;;;0.52;0.52;;;;;;;11.40;96.24;95544.38;5120148;27;20209;-75
2023/10/03 00:36:36;;;;;;;3.95;2.15;;;;;;;11.33;97.66;95549.44;5132311;27;20216;-76
2023/10/03 00:39:06;;;;;;;3.35;1.90;;;;;;;11.36;97.48;95548.81;5132115;27;20607;-75
2023/10/03 00:41:34;;;;;;;0.93;0.63;;;;;;;11.33;97.01;95557.59;5132338;27;20277;-76
2023/10/03 00:44:04;;;;;;;0.80;0.50;;;;;;;11.32;97.14;95547.84;5129499;27;20259;-76
2023/10/03 00:46:32;;;;;;;0.20;0.20;;;;;;;11.30;96.46;95543.81;5118720;27;20201;-76
2023/10/03 00:49:04;;;;;;;0.30;0.30;;;;;;;11.27;96.43;95545.25;5122196;27;20205;-76
2023/10/03 00:51:31;;;;;;;0.65;0.65;;;;;;;11.34;96.29;95547.53;5131548;27;20537;-76
2023/10/03 00:54:02;;;;;;;0.38;0.38;;;;;;;11.27;96.23;95550.66;5132128;27;20606;-76
2023/10/03 00:56:30;;;;;;;0.20;0.20;;;;;;;11.28;96.36;95563.13;5109966;27;20205;-76
2023/10/03 00:58:57;;;;;;;0.55;0.55;;;;;;;11.23;95.91;95555.09;5131919;27;20201;-76
2023/10/03 01:01:27;;;;;;;0.20;0.20;;;;;;;11.23;96.79;95557.81;5131403;27;20240;-75
2023/10/03 01:03:56;;;;;;;0.20;0.20;;;;;;;11.26;97.45;95559.91;5132009;27;20243;-76
2023/10/03 01:06:25;;;;;;;5.10;2.03;;;;;;;11.24;97.70;95554.00;5131910;27;20240;-76
2023/10/03 01:08:52;;;;;;;4.85;2.03;;;;;;;11.29;97.46;95559.31;5131976;27;20200;-75
2023/10/03 01:11:22;;;;;;;0.68;0.68;;;;;;;11.29;97.16;95553.88;5131344;27;20225;-76
2023/10/03 01:13:58;;;;;;;0.30;0.30;;;;;;;11.36;96.64;95548.81;5132085;27;20197;-76
2023/10/03 01:16:29;;;;;;;0.30;0.30;;;;;;;11.37;96.44;95555.84;5131558;27;20287;-75
2023/10/03 01:18:59;;;;;;;0.35;0.35;;;;;;;11.30;96.60;95555.47;5131750;27;20205;-77
2023/10/03 01:21:26;;;;;;;0.30;0.30;;;;;;;11.33;96.23;95554.88;5131241;27;20190;-75
2023/10/03 01:23:54;;;;;;;1.42;1.33;;;;;;;11.34;96.49;95556.44;5131713;27;20204;-76
2023/10/03 01:26:21;;;;;;;0.35;0.35;;;;;;;11.26;97.39;95550.97;5131377;27;20672;-74
2023/10/03 01:28:49;;;;;;;0.20;0.20;;;;;;;11.19;98.47;95553.34;5131350;27;20205;-75
2023/10/03 01:31:16;;;;;;;0.52;0.52;;;;;;;11.12;98.48;95542.91;5126458;27;20243;-74
2023/10/03 01:33:43;;;;;;;0.22;0.22;;;;;;;11.04;99.69;95546.38;5128818;27;20197;-73
2023/10/03 01:36:11;;;;;;;0.20;0.20;;;;;;;11.03;100.00;95539.34;5129880;27;20295;-74
2023/10/03 01:38:38;;;;;;;0.20;0.20;;;;;;;10.94;100.00;95547.38;5131013;27;20204;-74
2023/10/03 01:41:07;;;;;;;0.88;0.88;;;;;;;11.01;100.00;95546.97;5112699;27;20246;-74
2023/10/03 01:43:34;;;;;;;0.20;0.20;;;;;;;11.03;100.00;95545.56;5128508;27;20611;-74
2023/10/03 01:46:01;;;;;;;0.20;0.20;;;;;;;11.00;100.00;95548.88;5131391;27;20273;-73
2023/10/03 01:48:28;;;;;;;0.43;0.43;;;;;;;10.94;100.00;95552.00;5130702;27;20275;-74
2023/10/03 01:50:55;;;;;;;8.50;0.55;;;;;;;10.88;100.00;95542.41;5130851;28;20231;-74
2023/10/03 01:53:23;;;;;;;2.97;0.85;;;;;;;10.92;100.00;95543.41;5117478;28;20208;-73
2023/10/03 01:55:50;;;;;;;0.20;0.20;;;;;;;10.97;100.00;95549.47;5131398;28;20204;-74
2023/10/03 01:58:21;;;;;;;4.47;2.38;;;;;;;10.96;99.73;95539.75;5123050;28;20236;-74
2023/10/03 02:00:48;;;;;;;2.95;2.30;;;;;;;10.93;99.94;95542.28;5124429;27;20192;-74
2023/10/03 02:03:15;;;;;;;0.82;0.77;;;;;;;10.92;99.60;95543.41;5130274;27;20205;-75
2023/10/03 02:05:42;;;;;;;1.00;1.00;;;;;;;10.95;99.83;95542.75;5121820;27;20526;-75
2023/10/03 02:08:12;;;;;;;0.40;0.40;;;;;;;10.94;100.00;95543.88;5126976;27;20672;-73
2023/10/03 02:10:40;;;;;;;0.60;0.60;;;;;;;10.87;100.00;95524.53;5134752;27;20225;-74
2023/10/03 02:13:11;;;;;;;1.48;0.93;;;;;;;10.82;100.00;95536.28;5126410;27;20198;-74
2023/10/03 02:15:39;;;;;;;0.30;0.30;;;;;;;10.79;100.00;95522.56;5130239;27;20208;-74
2023/10/03 02:18:08;;;;;;;0.32;0.32;;;;;;;10.78;100.00;95527.19;5134792;27;20205;-77
2023/10/03 02:20:47;;;;;;;0.43;0.43;;;;;;;10.76;100.00;95513.13;5134689;27;20189;-74
2023/10/03 02:23:17;;;;;;;0.32;0.32;;;;;;;10.80;100.00;95518.72;5125112;27;20193;-74
2023/10/03 02:25:45;;;;;;;1.75;0.73;;;;;;;10.78;100.00;95520.97;5135261;27;20232;-74
2023/10/03 02:28:14;;;;;;;0.52;0.52;;;;;;;10.65;100.00;95512.56;5115709;27;20661;-74
2023/10/03 02:30:43;;;;;;;0.50;0.50;;;;;;;10.63;100.00;95525.63;5136681;27;20308;-77
2023/10/03 02:33:12;;;;;;;0.20;0.20;;;;;;;10.56;100.00;95516.28;5138489;27;20198;-74
2023/10/03 02:35:42;;;;;;;0.10;0.10;;;;;;;10.57;100.00;95507.88;5132622;27;20205;-74
2023/10/03 02:38:11;;;;;;;0.30;0.30;;;;;;;10.57;100.00;95515.19;5140287;27;20614;-74
2023/10/03 02:40:40;;;;;;;0.70;0.70;;;;;;;10.56;100.00;95513.59;5136711;27;20262;-75
2023/10/03 02:43:10;;;;;;;4.18;2.22;;;;;;;10.59;100.00;95502.16;5135018;27;20287;-75
2023/10/03 02:45:37;;;;;;;3.78;2.17;;;;;;;10.56;100.00;95508.16;5133782;27;20225;-75
2023/10/03 02:48:14;;;;;;;5.20;2.78;;;;;;;10.47;100.00;95508.09;5135063;27;20213;-74
2023/10/03 02:50:43;;;;;;;3.13;1.95;;;;;;;10.44;100.00;95495.16;5133579;27;20220;-74
2023/10/03 02:53:12;;;;;;;7.78;2.20;;;;;;;10.48;100.00;95496.16;5117007;27;20392;-74
2023/10/03 02:55:40;;;;;;;7.40;2.33;;;;;;;10.44;100.00;95506.00;5114329;28;20209;-74
2023/10/03 02:58:06;;;;;;;2.80;1.95;;;;;;;10.32;100.00;95508.44;5114329;28;20213;-74
2023/10/03 03:00:35;;;;;;;3.55;2.20;;;;;;;10.22;100.00;95503.25;5118197;27;20204;-75
2023/10/03 03:03:06;;;;;;;0.30;0.30;;;;;;;10.10;100.00;95516.47;5129750;27;20541;-74
2023/10/03 03:05:36;;;;;;;0.40;0.40;;;;;;;10.06;100.00;95516.25;5132550;27;20204;-74
2023/10/03 03:08:10;;;;;;;0.88;0.88;;;;;;;10.03;100.00;95510.66;5129071;27;20251;-75
2023/10/03 03:10:38;;;;;;;0.38;0.38;;;;;;;10.05;100.00;95517.38;5127265;27;20233;-74
2023/10/03 03:13:07;;;;;;;0.63;0.63;;;;;;;9.99;100.00;95515.84;5129576;27;20239;-75
2023/10/03 03:15:37;;;;;;;0.30;0.30;;;;;;;10.11;100.00;95523.50;5134205;27;20861;-75
2023/10/03 03:18:03;;;;;;;5.45;2.08;;;;;;;10.08;100.00;95524.09;5121478;27;20198;-74
2023/10/03 03:20:37;;;;;;;4.10;2.05;;;;;;;10.14;100.00;95523.66;5133027;27;20284;-74
2023/10/03 03:23:09;;;;;;;3.88;2.33;;;;;;;10.07;100.00;95527.88;5121673;27;20200;-74
2023/10/03 03:25:37;;;;;;;4.95;2.35;;;;;;;9.93;100.00;95528.69;5129069;27;20205;-74
2023/10/03 03:28:13;;;;;;;4.90;2.50;;;;;;;9.96;100.00;95530.00;5133833;27;20615;-75
2023/10/03 03:30:45;;;;;;;7.07;3.40;;;;;;;10.02;100.00;95536.09;5133711;27;20576;-75
2023/10/03 03:33:14;;;;;;;4.57;2.90;;;;;;;10.10;100.00;95532.72;5124391;27;20291;-74
2023/10/03 03:35:41;;;;;;;6.10;3.10;;;;;;;10.09;100.00;95531.09;5132903;27;20650;-74
2023/10/03 03:38:15;;;;;;;6.00;3.13;;;;;;;10.04;100.00;95534.72;5133297;27;20309;-74
2023/10/03 03:40:45;;;;;;;0.82;0.82;;;;;;;10.04;100.00;95533.91;5133612;27;20233;-74
2023/10/03 03:43:14;;;;;;;0.30;0.30;;;;;;;10.01;100.00;95539.91;5126248;27;20190;-74
2023/10/03 03:45:41;;;;;;;0.55;0.55;;;;;;;10.04;100.00;95533.91;5133268;27;20698;-74
2023/10/03 03:48:09;;;;;;;0.73;0.73;;;;;;;10.06;100.00;95535.22;5125781;27;20197;-75
2023/10/03 03:50:37;;;;;;;0.43;0.43;;;;;;;10.12;100.00;95538.59;5122850;27;20221;-75
2023/10/03 03:53:04;;;;;;;0.20;0.20;;;;;;;9.97;100.00;95537.84;5111892;28;20286;-74
2023/10/03 03:55:34;;;;;;;2.60;0.90;;;;;;;9.91;100.00;95547.16;5111533;28;20214;-77
2023/10/03 03:58:04;;;;;;;0.20;0.20;;;;;;;9.95;100.00;95545.44;5112555;28;20206;-75
2023/10/03 04:00:32;;;;;;;0.40;0.40;;;;;;;9.96;100.00;95544.34;5111613;28;20323;-75
2023/10/03 04:03:00;;;;;;;0.20;0.20;;;;;;;9.89;100.00;95554.75;5112222;28;20209;-75
2023/10/03 04:05:29;;;;;;;2.25;0.65;;;;;;;9.87;100.00;95548.03;5112763;28;20220;-74
2023/10/03 04:07:57;;;;;;;0.95;0.95;;;;;;;9.90;100.00;95556.34;5112989;28;20253;-75
2023/10/03 04:10:23;;;;;;;0.47;0.47;;;;;;;9.88;100.00;95552.34;5112026;28;20233;-75
2023/10/03 04:12:52;;;;;;;0.30;0.30;;;;;;;9.92;100.00;95553.34;5112912;28;20232;-75
2023/10/03 04:15:19;;;;;;;0.20;0.20;;;;;;;9.95;100.00;95558.19;5112327;28;20585;-75
2023/10/03 04:17:48;;;;;;;0.38;0.38;;;;;;;9.95;100.00;95553.56;5112627;28;20582;-76
2023/10/03 04:20:25;;;;;;;0.30;0.30;;;;;;;9.91;100.00;95552.56;5112384;28;20586;-74
2023/10/03 04:22:52;;;;;;;0.63;0.63;;;;;;;9.89;100.00;95560.16;5120178;27;20211;-75
2023/10/03 04:25:20;;;;;;;0.40;0.40;;;;;;;9.91;100.00;95551.75;5131739;27;20550;-75
2023/10/03 04:27:48;;;;;;;0.30;0.30;;;;;;;9.95;100.00;95558.97;5133036;27;20216;-75
2023/10/03 04:30:19;;;;;;;0.20;0.20;;;;;;;9.94;100.00;95557.38;5132728;27;20209;-75
2023/10/03 04:32:47;;;;;;;0.73;0.73;;;;;;;10.05;100.00;95551.75;5132874;27;20224;-75
2023/10/03 04:35:14;;;;;;;0.70;0.30;;;;;;;10.15;100.00;95551.53;5132276;27;20627;-75
2023/10/03 04:37:42;;;;;;;3.65;2.20;;;;;;;10.19;100.00;95549.88;5132644;27;20208;-75
2023/10/03 04:40:15;;;;;;;3.92;2.40;;;;;;;10.38;100.00;95544.34;5132506;27;20209;-78
2023/10/03 04:42:43;;;;;;;4.72;2.40;;;;;;;10.42;100.00;95545.31;5132917;27;20242;-75
2023/10/03 04:45:14;;;;;;;3.20;2.05;;;;;;;10.49;100.00;95546.53;5113040;27;20664;-76
2023/10/03 04:47:44;;;;;;;3.17;2.20;;;;;;;10.80;100.00;95540.41;5112092;28;20216;-76
2023/10/03 04:50:12;;;;;;;5.10;2.63;;;;;;;11.28;100.00;95546.84;5118389;27;20204;-75
2023/10/03 04:52:39;;;;;;;3.72;2.45;;;;;;;11.88;100.00;95532.84;5132343;27;20260;-76
2023/10/03 04:55:08;;;;;;;0.80;0.80;;;;;;;12.40;100.00;95527.56;5132107;27;20262;-76
2023/10/03 04:57:41;;;;;;;0.40;0.40;;;;;;;13.07;100.00;95530.66;5132362;27;20205;-76
2023/10/03 05:00:10;;;;;;;2.13;1.00;;;;;;;13.47;100.00;95528.56;5132133;27;20197;-77
2023/10/03 05:02:36;;;;;;;0.68;0.63;;;;;;;13.81;100.00;95529.56;5116721;27;20584;-75
2023/10/03 05:05:06;;;;;;;0.55;0.50;;;;;;;13.93;100.00;95535.16;5111769;28;20571;-76
2023/10/03 05:07:33;;;;;;;0.30;0.30;;;;;;;14.57;100.00;95538.53;5111423;28;20214;-75
2023/10/03 05:10:03;;;;;;;0.40;0.40;;;;;;;15.33;100.00;95532.00;5111568;28;20556;-76
2023/10/03 05:12:30;;;;;;;0.40;0.40;;;;;;;15.68;100.00;95532.50;5111208;28;20214;-76
2023/10/03 05:14:56;;;;;;;5.97;3.05;;;;;;;16.15;100.00;95523.91;5111275;28;20209;-75
2023/10/03 05:17:25;;;;;;;0.45;0.45;;;;;;;16.52;100.00;95527.47;5128722;27;20224;-76
2023/10/03 05:19:52;;;;;;;0.70;0.70;;;;;;;16.71;99.44;95524.97;5131785;27;20213;-75
2023/10/03 05:22:21;;;;;;;0.20;0.20;;;;;;;16.70;97.62;95526.91;5117943;27;20575;-75
2023/10/03 05:24:49;;;;;;;2.40;0.90;;;;;;;17.10;96.08;95530.81;5120586;27;20206;-75
2023/10/03 05:27:16;;;;;;;0.32;0.32;;;;;;;17.40;94.85;95529.34;5129816;27;20304;-76
2023/10/03 05:29:44;;;;;;;4.00;0.55;;;;;;;17.47;94.70;95535.03;5132373;27;20604;-76
2023/10/03 05:32:12;;;;;;;3.15;2.00;;;;;;;17.62;94.01;95534.28;5131560;27;20280;-79
2023/10/03 05:34:39;;;;;;;4.18;2.00;;;;;;;17.73;93.01;95532.66;5132236;27;20212;-76
2023/10/03 05:37:06;;;;;;;5.95;0.88;;;;;;;18.02;92.73;95533.41;5131626;27;20204;-76
2023/10/03 05:39:35;;;;;;;2.38;1.27;;;;;;;18.18;64.10;95523.19;5131705;27;20548;-76
2023/10/03 05:42:02;;;;;;;1.75;1.08;;;;;;;18.62;60.59;95514.88;5131812;27;20215;-77
2023/10/03 05:44:29;;;;;;;0.98;0.95;;;;;;;18.96;60.22;95527.84;5118681;27;20237;-76
2023/10/03 05:46:57;;;;;;;4.88;3.10;;;;;;;19.06;59.64;95527.25;5111313;28;20296;-76
2023/10/03 05:49:25;;;;;;;5.57;2.20;;;;;;;18.84;60.51;95529.91;5111495;28;20723;-76
2023/10/03 05:51:55;;;;;;;0.68;0.68;;;;;;;18.43;60.45;95538.34;5111552;28;20301;-76
2023/10/03 05:54:23;;;;;;;0.65;0.65;;;;;;;18.03;61.42;95535.78;5111864;28;20211;-76
2023/10/03 05:56:53;;;;;;;0.40;0.40;;;;;;;18.09;61.12;95533.56;5111676;28;20575;-75
2023/10/03 05:59:20;;;;;;;4.10;2.47;;;;;;;18.57;59.85;95532.41;5110943;28;20274;-76
2023/10/03 06:01:48;;;;;;;5.30;2.88;;;;;;;19.02;58.59;95529.13;5112379;28;20209;-78
2023/10/03 06:04:14;;;;;;;0.95;0.90;;;;;;;19.85;56.50;95535.16;5112596;28;20209;-77
2023/10/03 06:06:43;;;;;;;1.85;1.08;;;;;;;20.15;55.03;95529.81;5113522;28;20628;-77
2023/10/03 06:09:11;;;;;;;2.00;1.30;;;;;;;19.85;55.51;95535.94;5112581;28;20197;-77
2023/10/03 06:11:38;;;;;;;4.85;2.80;;;;;;;20.33;55.36;95528.16;5112352;28;20264;-77
2023/10/03 06:14:06;;;;;;;1.02;0.98;;;;;;;20.62;54.49;95531.41;5113689;28;20209;-78
2023/10/03 06:16:33;;;;;;;4.57;1.40;;;;;;;20.35;54.08;95536.06;5123090;28;20258;-77
2023/10/03 06:19:00;;;;;;;0.40;0.40;;;;;;;19.39;57.22;95547.97;5132910;28;20201;-77
2023/10/03 06:21:26;;;;;;;4.03;1.13;;;;;;;20.21;55.01;95542.13;5133484;28;20587;-75
2023/10/03 06:23:53;;;;;;;0.70;0.70;;;;;;;20.21;54.80;95539.34;5131523;28;20212;-75
2023/10/03 06:26:20;;;;;;;0.85;0.57;;;;;;;20.69;53.99;95531.50;5131161;28;20521;-75
2023/10/03 06:28:48;;;;;;;6.10;3.13;;;;;;;21.28;52.57;95528.84;5131397;28;20595;-76
2023/10/03 06:31:17;;;;;;;3.22;1.08;;;;;;;21.27;51.45;95538.28;5132316;28;20634;-76
2023/10/03 06:33:44;;;;;;;0.63;0.63;;;;;;;21.84;50.05;95533.47;5131713;28;20240;-75
2023/10/03 06:36:12;;;;;;;2.92;0.57;;;;;;;22.28;49.04;95535.50;5131914;28;20197;-76
2023/10/03 06:38:41;;;;;;;1.13;0.75;;;;;;;22.32;49.56;95541.84;5131244;28;20297;-76
2023/10/03 06:41:09;;;;;;;1.15;0.80;;;;;;;22.33;48.79;95544.22;5130863;28;20205;-75
2023/10/03 06:43:38;;;;;;;0.80;0.80;;;;;;;21.46;49.83;95550.31;5124910;28;20210;-76
2023/10/03 06:46:06;;;;;;;0.70;0.70;;;;;;;21.70;49.90;95549.06;5110985;28;20227;-76
2023/10/03 06:48:35;;;;;;;4.43;2.92;;;;;;;21.06;51.69;95542.66;5113629;28;20217;-78
2023/10/03 06:51:05;;;;;;;5.60;2.55;;;;;;;19.88;53.77;95559.97;5115458;28;20245;-77
2023/10/03 06:53:32;;;;;;;6.20;3.05;;;;;;;20.45;53.14;95563.00;5122032;27;20320;-76
2023/10/03 06:56:00;;;;;;;6.68;2.67;;;;;;;19.96;54.49;95554.59;5134667;27;20216;-75
2023/10/03 06:58:27;;;;;;;7.65;3.22;;;;;;;19.02;57.09;95567.56;5134369;27;20212;-77
2023/10/03 07:00:55;;;;;;;9.88;3.03;;;;;;;18.55;58.92;95566.84;5134551;27;20292;-75
2023/10/03 07:03:22;;;;;;;4.55;2.67;;;;;;;18.46;59.04;95556.81;5134736;27;20304;-75
2023/10/03 07:05:50;;;;;;;3.47;2.13;;;;;;;18.61;59.73;95562.69;5134916;27;20216;-76
2023/10/03 07:08:17;;;;;;;4.35;2.60;;;;;;;17.31;62.91;95573.31;5136128;27;20562;-76
2023/10/03 07:10:44;;;;;;;5.13;2.72;;;;;;;17.69;62.89;95575.59;5135713;27;20563;-77
2023/10/03 07:13:12;;;;;;;4.75;2.75;;;;;;;17.47;62.50;95576.13;5135983;27;20505;-76
2023/10/03 07:15:42;;;;;;;0.75;0.73;;;;;;;17.55;63.10;95586.13;5121037;27;20213;-76
2023/10/03 07:18:09;;;;;;;0.82;0.82;;;;;;;17.08;64.12;95587.88;5134389;27;20246;-76
2023/10/03 07:20:35;;;;;;;0.80;0.80;;;;;;;18.00;61.65;95590.53;5134215;27;20559;-77
2023/10/03 07:23:05;;;;;;;0.70;0.70;;;;;;;17.62;62.41;95589.06;5134698;27;20250;-76
2023/10/03 07:25:32;;;;;;;0.65;0.65;;;;;;;18.31;60.78;95585.06;5133997;27;20201;-76
2023/10/03 07:28:00;;;;;;;0.40;0.40;;;;;;;18.34;60.17;95578.88;5134579;27;20576;-76
2023/10/03 07:30:27;;;;;;;6.63;2.45;;;;;;;18.47;60.45;95585.06;5134127;27;20238;-76
2023/10/03 07:32:54;;;;;;;4.57;2.50;;;;;;;18.02;61.92;95590.97;5134406;27;20583;-76
2023/10/03 07:35:22;;;;;;;0.45;0.45;;;;;;;18.29;62.52;95592.88;5134120;27;20575;-76
2023/10/03 07:37:52;;;;;;;0.32;0.32;;;;;;;18.24;61.39;95587.63;5134449;27;20244;-76
2023/10/03 07:40:22;;;;;;;1.05;0.75;;;;;;;18.28;61.53;95579.50;5134197;27;20201;-76
2023/10/03 07:42:50;;;;;;;0.75;0.75;;;;;;;17.40;62.94;95590.41;5133980;27;20204;-74
2023/10/03 07:45:18;;;;;;;2.63;1.13;;;;;;;17.74;62.50;95588.25;5113402;27;20273;-74
2023/10/03 07:47:46;;;;;;;0.70;0.70;;;;;;;17.86;62.39;95584.66;5113256;28;20213;-76
2023/10/03 07:50:13;;;;;;;1.58;0.75;;;;;;;18.17;61.51;95581.19;5119923;27;20205;-76
2023/10/03 07:52:44;;;;;;;2.47;1.52;;;;;;;18.23;61.43;95583.28;5133948;27;20267;-76
2023/10/03 07:55:11;;;;;;;0.80;0.80;;;;;;;18.32;61.04;95570.19;5133890;27;20232;-76
2023/10/03 07:57:41;;;;;;;2.70;1.23;;;;;;;18.24;61.19;95579.41;5133249;27;20680;-74
2023/10/03 08:00:11;;;;;;;3.65;2.40;;;;;;;18.81;60.41;95575.34;5133237;27;20205;-75
2023/10/03 08:02:43;;;;;;;0.50;0.50;;;;;;;18.74;59.81;95575.16;5133562;27;20212;-75
2023/10/03 08:05:11;;;;;;;2.35;0.85;;;;;;;18.09;60.80;95577.44;5123437;27;20259;-75
2023/10/03 08:07:39;;;;;;;3.55;2.38;;;;;;;18.15;60.85;95578.00;5113048;27;20284;-75
2023/10/03 08:10:06;;;;;;;4.53;2.33;;;;;;;18.17;60.88;95579.22;5133564;27;20635;-74
2023/10/03 08:12:38;;;;;;;1.02;1.02;;;;;;;18.07;60.50;95574.25;5133066;27;20224;-76
2023/10/03 08:15:17;;;;;;;4.32;1.25;;;;;;;18.41;60.19;95573.56;5133541;27;20592;-76
2023/10/03 08:17:45;;;;;;;3.90;2.47;;;;;;;18.25;60.67;95574.72;5133880;27;20216;-76
2023/10/03 08:20:15;;;;;;;3.83;2.33;;;;;;;18.36;60.17;95571.09;5133045;27;20231;-76
2023/10/03 08:22:50;;;;;;;3.72;2.40;;;;;;;18.94;58.80;95563.09;5133064;27;20209;-77
2023/10/03 08:25:18;;;;;;;1.33;1.10;;;;;;;18.91;58.57;95574.78;5132717;27;20288;-76
2023/10/03 08:27:46;;;;;;;1.77;1.23;;;;;;;18.51;59.03;95565.94;5124329;27;20206;-76
2023/10/03 08:30:28;;;;;;;0.52;0.52;;;;;;;18.50;59.62;95569.84;5128589;27;20209;-76
2023/10/03 08:33:00;;;;;;;8.25;2.40;;;;;;;18.42;59.08;95561.44;5114337;27;20231;-76
2023/10/03 08:35:37;;;;;;;1.75;0.95;;;;;;;18.36;59.66;95565.59;5132232;27;20553;-76
2023/10/03 08:38:05;;;;;;;1.17;0.93;;;;;;;18.81;58.70;95564.34;5133006;27;20208;-76
2023/10/03 08:40:38;;;;;;;0.65;0.65;;;;;;;18.72;58.98;95566.50;5132730;27;20197;-75
2023/10/03 08:43:08;;;;;;;1.52;0.65;;;;;;;18.44;58.51;95561.09;5131500;27;20250;-76
2023/10/03 08:45:40;;;;;;;0.77;0.77;;;;;;;18.44;59.42;95552.88;5111665;28;20241;-76
2023/10/03 08:48:08;;;;;;;3.17;2.20;;;;;;;19.01;58.21;95541.25;5111899;28;20213;-76
2023/10/03 08:50:39;;;;;;;0.82;0.82;;;;;;;19.54;56.60;95552.63;5111656;28;20230;-76
2023/10/03 08:53:26;;;;;;;3.95;2.67;;;;;;;19.76;55.93;95543.66;5112243;28;20277;-76
2023/10/03 08:55:57;;;;;;;6.63;2.20;;;;;;;19.50;56.48;95540.78;5111943;28;20209;-76
2023/10/03 08:58:25;;;;;;;0.57;0.57;;;;;;;19.47;55.73;95549.69;5119367;27;20244;-77
2023/10/03 09:00:59;;;;;;;1.13;0.80;;;;;;;18.90;57.19;95545.72;5132893;27;20231;-75
2023/10/03 09:03:42;;;;;;;0.77;0.77;;;;;;;18.46;58.36;95536.81;5132488;27;20200;-76
2023/10/03 09:06:09;;;;;;;4.13;2.42;;;;;;;18.87;57.96;95534.66;5131648;27;20205;-76
2023/10/03 09:08:36;;;;;;;4.38;1.33;;;;;;;18.75;57.66;95538.31;5132165;27;20204;-76
2023/10/03 09:11:13;;;;;;;0.73;0.47;;;;;;;18.79;58.10;95531.75;5131824;27;20291;-76
2023/10/03 09:13:45;;;;;;;1.02;0.95;;;;;;;18.89;57.64;95529.59;5131704;27;20267;-76
2023/10/03 09:16:15;;;;;;;0.35;0.35;;;;;;;19.20;57.26;95532.25;5132125;27;20197;-76
2023/10/03 09:18:42;;;;;;;3.58;2.28;;;;;;;19.05;57.33;95531.16;5117841;27;20245;-76
2023/10/03 09:21:14;;;;;;;3.55;2.28;;;;;;;18.64;57.73;95538.06;5131834;27;20215;-76
2023/10/03 09:23:59;;;;;;;0.68;0.63;;;;;;;18.83;57.53;95525.56;5118100;27;20293;-76
2023/10/03 09:26:28;;;;;;;0.80;0.80;;;;;;;19.10;57.86;95532.84;5132076;27;20297;-75
2023/10/03 09:28:58;;;;;;;0.68;0.68;;;;;;;19.27;56.55;95531.63;5131771;27;20208;-75
2023/10/03 09:31:27;;;;;;;3.15;2.10;;;;;;;19.30;55.84;95530.88;5131656;27;20313;-76
2023/10/03 09:33:57;;;;;;;0.95;0.88;;;;;;;19.18;56.76;95529.88;5132123;27;20233;-76
2023/10/03 09:36:28;;;;;;;0.70;0.70;;;;;;;19.00;56.49;95509.47;5112878;27;20204;-76
2023/10/03 09:38:55;;;;;;;0.82;0.60;;;;;;;19.20;56.00;95514.97;5131911;27;20550;-76
2023/10/03 09:41:22;;;;;;;1.42;0.80;;;;;;;19.30;56.46;95515.19;5117946;27;20288;-75
2023/10/03 09:43:53;;;;;;;0.73;0.50;;;;;;;19.68;56.23;95517.16;5127058;27;20236;-77
2023/10/03 09:46:26;;;;;;;2.40;0.88;;;;;;;19.68;54.73;95508.91;5131486;27;20227;-77
2023/10/03 09:49:07;;;;;;;1.38;1.02;;;;;;;19.56;55.09;95511.81;5131781;27;20201;-78
2023/10/03 09:51:46;;;;;;;4.60;2.30;;;;;;;19.74;54.57;95512.97;5131362;27;20230;-77
2023/10/03 09:54:23;;;;;;;4.65;2.22;;;;;;;20.14;54.79;95498.75;5135269;28;20571;-78
2023/10/03 09:56:51;;;;;;;5.50;2.15;;;;;;;20.44;52.96;95501.63;5132615;28;20537;-77
2023/10/03 09:59:20;;;;;;;5.45;2.33;;;;;;;19.92;53.50;95512.50;5130973;28;20576;-77
2023/10/03 10:01:47;;;;;;;3.42;0.90;;;;;;;19.84;53.72;95506.06;5111363;28;20573;-77
2023/10/03 10:04:20;;;;;;;4.22;2.15;;;;;;;19.77;54.23;95500.44;5110744;28;20205;-76
2023/10/03 10:06:51;;;;;;;5.28;2.63;;;;;;;20.12;53.22;95494.75;5110430;28;20292;-75
2023/10/03 10:09:27;;;;;;;0.73;0.65;;;;;;;20.38;52.07;95496.78;5110931;28;20205;-77
2023/10/03 10:12:10;;;;;;;3.78;1.70;;;;;;;20.74;51.52;95487.13;5112216;28;20663;-75
2023/10/03 10:15:03;;;;;;;0.60;0.60;;;;;;;20.72;51.38;95484.75;5108837;28;20265;-77
2023/10/03 10:17:51;;;;;;;2.03;1.50;;;;;;;20.69;51.88;95474.47;5111042;28;20211;-77
2023/10/03 10:20:27;;;;;;;0.77;0.77;;;;;;;20.73;51.51;95480.03;5111417;28;20213;-76
2023/10/03 10:23:21;;;;;;;1.35;0.82;;;;;;;20.74;51.75;95473.38;5134095;27;20311;-76
2023/10/03 10:25:56;;;;;;;3.47;1.90;;;;;;;20.73;50.64;95460.75;5135641;27;20593;-76
2023/10/03 10:28:30;;;;;;;3.80;1.95;;;;;;;20.39;50.67;95460.66;5135159;27;20652;-77
2023/10/03 10:31:21;;;;;;;5.22;1.90;;;;;;;20.67;51.00;95456.72;5135441;27;20569;-77
2023/10/03 10:33:49;;;;;;;2.53;1.80;;;;;;;20.66;49.66;95455.13;5135231;27;20221;-76
2023/10/03 10:36:55;;;;;;;5.47;2.38;;;;;;;20.33;50.85;95451.09;5135777;27;20207;-75
2023/10/03 10:39:23;;;;;;;4.38;2.25;;;;;;;20.45;51.26;95434.41;5134677;27;20208;-77
2023/10/03 10:42:11;;;;;;;3.92;2.00;;;;;;;20.50;50.87;95450.59;5135283;27;20223;-74
2023/10/03 10:45:16;;;;;;;3.38;2.00;;;;;;;20.48;51.19;95441.94;5109598;27;20778;-75
2023/10/03 10:47:48;;;;;;;3.92;2.17;;;;;;;20.29;51.26;95450.25;5134813;27;20572;-74
2023/10/03 10:50:17;;;;;;;2.67;1.90;;;;;;;20.51;51.74;95432.91;5123903;27;20248;-76
2023/10/03 10:52:53;;;;;;;2.90;1.95;;;;;;;20.64;52.54;95433.47;5114006;28;20313;-77
2023/10/03 10:55:20;;;;;;;4.18;2.33;;;;;;;20.96;50.51;95422.09;5113911;28;20205;-76
2023/10/03 10:57:48;;;;;;;0.95;0.82;;;;;;;21.23;49.33;95429.94;5114175;28;20215;-76
2023/10/03 11:00:21;;;;;;;3.90;2.10;;;;;;;20.82;50.09;95430.97;5114288;28;20205;-76
2023/10/03 11:02:48;;;;;;;2.95;1.65;;;;;;;21.06;50.34;95422.22;5114254;28;20331;-76
2023/10/03 11:05:16;;;;;;;2.10;1.48;;;;;;;21.37;48.80;95417.50;5114118;28;20250;-77
2023/10/03 11:07:49;;;;;;;5.25;1.75;;;;;;;21.68;48.64;95419.81;5113374;28;20221;-77
2023/10/03 11:10:17;;;;;;;3.45;1.95;;;;;;;21.54;48.35;95408.63;5124771;27;20229;-77
2023/10/03 11:12:44;;;;;;;3.65;2.10;;;;;;;21.20;49.24;95405.88;5134458;27;20576;-76
2023/10/03 11:15:15;;;;;;;3.53;2.05;;;;;;;21.25;48.93;95411.06;5134905;27;20209;-76
2023/10/03 11:17:49;;;;;;;4.38;2.00;;;;;;;21.19;49.66;95407.06;5134306;27;20215;-77
2023/10/03 11:20:16;;;;;;;4.00;2.47;;;;;;;20.67;49.71;95415.41;5134509;27;20352;-77
2023/10/03 11:22:44;;;;;;;4.07;1.95;;;;;;;20.79;50.56;95404.97;5134109;27;20217;-76
2023/10/03 11:25:12;;;;;;;3.45;2.15;;;;;;;21.18;49.74;95391.66;5134127;27;20212;-76
2023/10/03 11:27:40;;;;;;;2.42;1.55;;;;;;;21.41;49.11;95388.81;5134261;27;20212;-77
2023/10/03 11:30:19;;;;;;;3.10;1.90;;;;;;;21.70;48.52;95376.09;5134163;27;20281;-77
2023/10/03 11:32:46;;;;;;;5.65;2.50;;;;;;;22.02;48.02;95383.84;5133983;27;20208;-78
2023/10/03 11:35:17;;;;;;;3.80;2.55;;;;;;;22.07;47.74;95380.75;5132839;27;20228;-77
2023/10/03 11:37:46;;;;;;;2.38;1.50;;;;;;;22.53;47.47;95379.09;5133074;27;20204;-77
2023/10/03 11:40:16;;;;;;;2.78;1.70;;;;;;;22.57;46.83;95370.81;5128091;27;20300;-78
2023/10/03 11:43:03;;;;;;;2.97;2.28;;;;;;;22.64;46.63;95370.88;5133209;27;20214;-76
2023/10/03 11:45:33;;;;;;;3.53;2.08;;;;;;;22.42;47.05;95369.16;5130581;27;20225;-76